sensor_id;sensor_type;location;lat;lon;timestamp;temperature;humidity
72114;SHT31;59989;46.220;19.888;2023-06-10T00:01:38;16.11;99.12
72114;SHT31;59989;46.220;19.888;2023-06-10T00:04:41;16.00;98.98
72114;SHT31;59989;46.220;19.888;2023-06-10T00:07:44;15.91;98.88
72114;SHT31;59989;46.220;19.888;2023-06-10T00:10:48;15.96;98.95
72114;SHT31;59989;46.220;19.888;2023-06-10T00:13:51;16.05;99.21
72114;SHT31;59989;46.220;19.888;2023-06-10T00:16:53;15.98;99.07
72114;SHT31;59989;46.220;19.888;2023-06-10T00:19:57;15.91;99.09
72114;SHT31;59989;46.220;19.888;2023-06-10T00:23:01;15.82;99.02
72114;SHT31;59989;46.220;19.888;2023-06-10T00:26:03;15.76;99.03
72114;SHT31;59989;46.220;19.888;2023-06-10T00:29:07;15.73;99.03
72114;SHT31;59989;46.220;19.888;2023-06-10T00:32:10;15.69;99.08
72114;SHT31;59989;46.220;19.888;2023-06-10T00:35:12;15.66;99.00
72114;SHT31;59989;46.220;19.888;2023-06-10T00:38:15;15.63;98.95
72114;SHT31;59989;46.220;19.888;2023-06-10T00:41:18;15.60;98.92
72114;SHT31;59989;46.220;19.888;2023-06-10T00:44:20;15.62;98.86
72114;SHT31;59989;46.220;19.888;2023-06-10T00:47:23;15.60;98.78
72114;SHT31;59989;46.220;19.888;2023-06-10T00:50:25;15.60;98.76
72114;SHT31;59989;46.220;19.888;2023-06-10T00:53:28;15.64;98.92
72114;SHT31;59989;46.220;19.888;2023-06-10T00:56:31;15.66;98.95
72114;SHT31;59989;46.220;19.888;2023-06-10T00:59:36;15.64;98.92
72114;SHT31;59989;46.220;19.888;2023-06-10T01:02:40;15.69;98.93
72114;SHT31;59989;46.220;19.888;2023-06-10T01:05:43;15.79;98.94
72114;SHT31;59989;46.220;19.888;2023-06-10T01:09:06;15.98;99.27
72114;SHT31;59989;46.220;19.888;2023-06-10T01:12:26;16.10;99.30
72114;SHT31;59989;46.220;19.888;2023-06-10T01:15:32;16.14;99.25
72114;SHT31;59989;46.220;19.888;2023-06-10T01:18:35;16.18;99.20
72114;SHT31;59989;46.220;19.888;2023-06-10T01:21:38;16.17;99.11
72114;SHT31;59989;46.220;19.888;2023-06-10T01:24:41;16.15;99.10
72114;SHT31;59989;46.220;19.888;2023-06-10T01:27:46;16.14;99.11
72114;SHT31;59989;46.220;19.888;2023-06-10T01:31:21;16.11;99.01
72114;SHT31;59989;46.220;19.888;2023-06-10T01:34:26;16.08;98.96
72114;SHT31;59989;46.220;19.888;2023-06-10T01:37:30;16.04;98.99
72114;SHT31;59989;46.220;19.888;2023-06-10T01:40:34;16.04;98.98
72114;SHT31;59989;46.220;19.888;2023-06-10T01:43:38;15.98;98.97
72114;SHT31;59989;46.220;19.888;2023-06-10T01:46:41;15.94;98.92
72114;SHT31;59989;46.220;19.888;2023-06-10T01:49:46;15.87;98.92
72114;SHT31;59989;46.220;19.888;2023-06-10T01:52:49;15.80;98.94
72114;SHT31;59989;46.220;19.888;2023-06-10T01:55:51;15.74;98.95
72114;SHT31;59989;46.220;19.888;2023-06-10T01:58:54;15.73;99.00
72114;SHT31;59989;46.220;19.888;2023-06-10T02:02:01;15.71;99.03
72114;SHT31;59989;46.220;19.888;2023-06-10T02:05:04;15.71;99.07
72114;SHT31;59989;46.220;19.888;2023-06-10T02:08:08;15.66;99.08
72114;SHT31;59989;46.220;19.888;2023-06-10T02:11:10;15.57;98.94
72114;SHT31;59989;46.220;19.888;2023-06-10T02:14:13;15.53;98.82
72114;SHT31;59989;46.220;19.888;2023-06-10T02:17:15;15.55;98.83
72114;SHT31;59989;46.220;19.888;2023-06-10T02:20:18;15.62;99.09
72114;SHT31;59989;46.220;19.888;2023-06-10T02:23:20;15.67;99.23
72114;SHT31;59989;46.220;19.888;2023-06-10T02:26:23;15.69;99.18
72114;SHT31;59989;46.220;19.888;2023-06-10T02:29:28;15.63;99.16
72114;SHT31;59989;46.220;19.888;2023-06-10T02:32:31;15.63;99.05
72114;SHT31;59989;46.220;19.888;2023-06-10T02:35:34;15.59;98.92
72114;SHT31;59989;46.220;19.888;2023-06-10T02:38:37;15.70;99.01
72114;SHT31;59989;46.220;19.888;2023-06-10T02:41:39;15.70;99.00
72114;SHT31;59989;46.220;19.888;2023-06-10T02:44:42;15.73;99.12
72114;SHT31;59989;46.220;19.888;2023-06-10T02:47:50;15.69;99.08
72114;SHT31;59989;46.220;19.888;2023-06-10T02:50:53;15.67;99.05
72114;SHT31;59989;46.220;19.888;2023-06-10T02:54:02;15.71;99.13
72114;SHT31;59989;46.220;19.888;2023-06-10T02:57:05;15.73;99.18
72114;SHT31;59989;46.220;19.888;2023-06-10T03:00:08;15.71;99.07
72114;SHT31;59989;46.220;19.888;2023-06-10T03:03:14;15.69;99.00
72114;SHT31;59989;46.220;19.888;2023-06-10T03:06:29;15.73;99.07
72114;SHT31;59989;46.220;19.888;2023-06-10T03:09:42;15.82;99.13
72114;SHT31;59989;46.220;19.888;2023-06-10T03:12:48;15.87;99.14
72114;SHT31;59989;46.220;19.888;2023-06-10T03:15:51;15.83;98.88
72114;SHT31;59989;46.220;19.888;2023-06-10T03:18:56;15.79;98.87
72114;SHT31;59989;46.220;19.888;2023-06-10T03:22:10;15.76;98.91
72114;SHT31;59989;46.220;19.888;2023-06-10T03:25:22;15.74;98.96
72114;SHT31;59989;46.220;19.888;2023-06-10T03:28:27;15.73;99.00
72114;SHT31;59989;46.220;19.888;2023-06-10T03:31:31;15.77;98.98
72114;SHT31;59989;46.220;19.888;2023-06-10T03:34:34;15.74;98.96
72114;SHT31;59989;46.220;19.888;2023-06-10T03:37:37;15.70;99.00
72114;SHT31;59989;46.220;19.888;2023-06-10T03:40:40;15.71;98.93
72114;SHT31;59989;46.220;19.888;2023-06-10T03:43:42;15.66;98.86
72114;SHT31;59989;46.220;19.888;2023-06-10T03:46:48;15.64;98.86
72114;SHT31;59989;46.220;19.888;2023-06-10T03:49:50;15.64;98.76
72114;SHT31;59989;46.220;19.888;2023-06-10T03:52:53;15.64;98.77
72114;SHT31;59989;46.220;19.888;2023-06-10T03:55:59;15.67;98.72
72114;SHT31;59989;46.220;19.888;2023-06-10T03:59:02;15.70;98.65
72114;SHT31;59989;46.220;19.888;2023-06-10T04:02:05;15.74;98.67
72114;SHT31;59989;46.220;19.888;2023-06-10T04:05:09;15.80;98.63
72114;SHT31;59989;46.220;19.888;2023-06-10T04:08:12;15.91;98.72
72114;SHT31;59989;46.220;19.888;2023-06-10T04:11:14;16.01;98.77
72114;SHT31;59989;46.220;19.888;2023-06-10T04:14:17;16.05;98.60
72114;SHT31;59989;46.220;19.888;2023-06-10T04:17:20;16.14;98.64
72114;SHT31;59989;46.220;19.888;2023-06-10T04:20:23;16.22;98.57
72114;SHT31;59989;46.220;19.888;2023-06-10T04:23:26;16.25;98.35
72114;SHT31;59989;46.220;19.888;2023-06-10T04:26:28;16.26;98.27
72114;SHT31;59989;46.220;19.888;2023-06-10T04:29:31;16.29;98.10
72114;SHT31;59989;46.220;19.888;2023-06-10T04:32:34;16.33;97.92
72114;SHT31;59989;46.220;19.888;2023-06-10T04:35:37;16.44;97.82
72114;SHT31;59989;46.220;19.888;2023-06-10T04:38:42;16.49;97.70
72114;SHT31;59989;46.220;19.888;2023-06-10T04:41:45;16.52;97.56
72114;SHT31;59989;46.220;19.888;2023-06-10T04:44:48;16.59;97.39
72114;SHT31;59989;46.220;19.888;2023-06-10T04:47:51;16.68;97.32
72114;SHT31;59989;46.220;19.888;2023-06-10T04:50:54;16.75;97.25
72114;SHT31;59989;46.220;19.888;2023-06-10T04:53:57;16.81;97.01
72114;SHT31;59989;46.220;19.888;2023-06-10T04:56:59;16.87;97.03
72114;SHT31;59989;46.220;19.888;2023-06-10T05:00:03;16.96;96.94
72114;SHT31;59989;46.220;19.888;2023-06-10T05:03:08;17.09;96.87
72114;SHT31;59989;46.220;19.888;2023-06-10T05:06:11;17.23;96.72
72114;SHT31;59989;46.220;19.888;2023-06-10T05:09:14;17.31;96.34
72114;SHT31;59989;46.220;19.888;2023-06-10T05:12:17;17.45;96.19
72114;SHT31;59989;46.220;19.888;2023-06-10T05:15:19;17.57;95.72
72114;SHT31;59989;46.220;19.888;2023-06-10T05:18:21;17.74;95.76
72114;SHT31;59989;46.220;19.888;2023-06-10T05:21:24;17.88;95.21
72114;SHT31;59989;46.220;19.888;2023-06-10T05:24:26;18.14;94.96
72114;SHT31;59989;46.220;19.888;2023-06-10T05:27:29;18.34;94.62
72114;SHT31;59989;46.220;19.888;2023-06-10T05:30:31;18.41;93.89
72114;SHT31;59989;46.220;19.888;2023-06-10T05:33:34;18.50;93.68
72114;SHT31;59989;46.220;19.888;2023-06-10T05:36:37;18.60;94.08
72114;SHT31;59989;46.220;19.888;2023-06-10T05:39:39;18.60;93.34
72114;SHT31;59989;46.220;19.888;2023-06-10T05:42:42;18.68;93.19
72114;SHT31;59989;46.220;19.888;2023-06-10T05:45:44;18.71;92.73
72114;SHT31;59989;46.220;19.888;2023-06-10T05:48:47;18.79;92.66
72114;SHT31;59989;46.220;19.888;2023-06-10T05:51:50;18.96;92.63
72114;SHT31;59989;46.220;19.888;2023-06-10T05:54:54;19.16;92.39
72114;SHT31;59989;46.220;19.888;2023-06-10T05:58:00;19.32;92.40
72114;SHT31;59989;46.220;19.888;2023-06-10T06:01:03;19.43;92.17
72114;SHT31;59989;46.220;19.888;2023-06-10T06:04:05;19.54;91.67
72114;SHT31;59989;46.220;19.888;2023-06-10T06:07:08;19.63;91.75
72114;SHT31;59989;46.220;19.888;2023-06-10T06:10:10;19.61;91.27
72114;SHT31;59989;46.220;19.888;2023-06-10T06:13:13;19.64;90.70
72114;SHT31;59989;46.220;19.888;2023-06-10T06:16:16;19.69;90.90
72114;SHT31;59989;46.220;19.888;2023-06-10T06:19:19;19.70;90.12
72114;SHT31;59989;46.220;19.888;2023-06-10T06:22:21;19.74;90.22
72114;SHT31;59989;46.220;19.888;2023-06-10T06:25:24;19.74;90.32
72114;SHT31;59989;46.220;19.888;2023-06-10T06:28:27;19.85;90.74
72114;SHT31;59989;46.220;19.888;2023-06-10T06:31:31;20.04;90.33
72114;SHT31;59989;46.220;19.888;2023-06-10T06:34:34;20.53;89.70
72114;SHT31;59989;46.220;19.888;2023-06-10T06:37:37;20.90;87.12
72114;SHT31;59989;46.220;19.888;2023-06-10T06:40:51;21.31;86.00
72114;SHT31;59989;46.220;19.888;2023-06-10T06:43:54;21.48;85.49
72114;SHT31;59989;46.220;19.888;2023-06-10T06:47:05;21.58;84.73
72114;SHT31;59989;46.220;19.888;2023-06-10T06:50:08;21.78;85.37
72114;SHT31;59989;46.220;19.888;2023-06-10T06:53:11;21.38;84.95
72114;SHT31;59989;46.220;19.888;2023-06-10T06:56:13;21.08;85.82
72114;SHT31;59989;46.220;19.888;2023-06-10T06:59:16;21.24;86.14
72114;SHT31;59989;46.220;19.888;2023-06-10T07:02:21;21.14;85.50
72114;SHT31;59989;46.220;19.888;2023-06-10T07:05:24;21.14;85.66
72114;SHT31;59989;46.220;19.888;2023-06-10T07:08:29;21.11;85.99
72114;SHT31;59989;46.220;19.888;2023-06-10T07:11:32;21.08;85.10
72114;SHT31;59989;46.220;19.888;2023-06-10T07:14:35;21.41;83.96
72114;SHT31;59989;46.220;19.888;2023-06-10T07:17:37;21.86;83.55
72114;SHT31;59989;46.220;19.888;2023-06-10T07:20:40;22.21;81.24
72114;SHT31;59989;46.220;19.888;2023-06-10T07:23:43;22.51;81.28
72114;SHT31;59989;46.220;19.888;2023-06-10T07:26:47;22.75;79.47
72114;SHT31;59989;46.220;19.888;2023-06-10T07:29:50;22.99;78.92
72114;SHT31;59989;46.220;19.888;2023-06-10T07:32:53;23.40;76.13
72114;SHT31;59989;46.220;19.888;2023-06-10T07:35:55;23.71;75.97
72114;SHT31;59989;46.220;19.888;2023-06-10T07:38:58;24.01;74.64
72114;SHT31;59989;46.220;19.888;2023-06-10T07:42:01;24.22;71.77
72114;SHT31;59989;46.220;19.888;2023-06-10T07:45:04;23.57;73.09
72114;SHT31;59989;46.220;19.888;2023-06-10T07:48:08;23.70;73.30
72114;SHT31;59989;46.220;19.888;2023-06-10T07:51:11;23.36;74.15
72114;SHT31;59989;46.220;19.888;2023-06-10T07:54:13;23.50;73.38
72114;SHT31;59989;46.220;19.888;2023-06-10T07:57:19;23.49;73.05
72114;SHT31;59989;46.220;19.888;2023-06-10T08:00:21;23.74;72.36
72114;SHT31;59989;46.220;19.888;2023-06-10T08:03:24;23.93;73.48
72114;SHT31;59989;46.220;19.888;2023-06-10T08:06:26;24.14;72.40
72114;SHT31;59989;46.220;19.888;2023-06-10T08:09:29;24.66;71.25
72114;SHT31;59989;46.220;19.888;2023-06-10T08:12:32;24.98;70.45
72114;SHT31;59989;46.220;19.888;2023-06-10T08:15:35;25.11;67.03
72114;SHT31;59989;46.220;19.888;2023-06-10T08:18:37;25.62;68.04
72114;SHT31;59989;46.220;19.888;2023-06-10T08:21:40;25.34;67.55
72114;SHT31;59989;46.220;19.888;2023-06-10T08:24:43;25.43;68.16
72114;SHT31;59989;46.220;19.888;2023-06-10T08:27:48;24.69;69.79
72114;SHT31;59989;46.220;19.888;2023-06-10T08:30:51;24.21;69.75
72114;SHT31;59989;46.220;19.888;2023-06-10T08:33:53;23.89;70.68
72114;SHT31;59989;46.220;19.888;2023-06-10T08:36:55;23.73;71.71
72114;SHT31;59989;46.220;19.888;2023-06-10T08:39:58;24.39;71.44
72114;SHT31;59989;46.220;19.888;2023-06-10T08:43:06;24.76;71.00
72114;SHT31;59989;46.220;19.888;2023-06-10T08:46:09;24.57;69.63
72114;SHT31;59989;46.220;19.888;2023-06-10T08:49:17;24.53;68.78
72114;SHT31;59989;46.220;19.888;2023-06-10T08:52:20;25.04;65.93
72114;SHT31;59989;46.220;19.888;2023-06-10T08:55:32;25.31;66.42
72114;SHT31;59989;46.220;19.888;2023-06-10T08:58:35;25.53;65.15
72114;SHT31;59989;46.220;19.888;2023-06-10T09:01:44;25.76;62.71
72114;SHT31;59989;46.220;19.888;2023-06-10T09:04:47;26.03;62.58
72114;SHT31;59989;46.220;19.888;2023-06-10T09:07:52;25.10;65.95
72114;SHT31;59989;46.220;19.888;2023-06-10T09:10:55;24.55;66.18
72114;SHT31;59989;46.220;19.888;2023-06-10T09:13:57;23.98;67.25
72114;SHT31;59989;46.220;19.888;2023-06-10T09:17:00;24.08;67.46
72114;SHT31;59989;46.220;19.888;2023-06-10T09:20:02;23.77;70.85
72114;SHT31;59989;46.220;19.888;2023-06-10T09:23:05;24.46;71.07
72114;SHT31;59989;46.220;19.888;2023-06-10T09:26:09;24.95;68.24
72114;SHT31;59989;46.220;19.888;2023-06-10T09:29:13;24.93;67.23
72114;SHT31;59989;46.220;19.888;2023-06-10T09:32:17;24.59;69.50
72114;SHT31;59989;46.220;19.888;2023-06-10T09:35:21;24.33;68.38
72114;SHT31;59989;46.220;19.888;2023-06-10T09:38:23;24.04;67.71
72114;SHT31;59989;46.220;19.888;2023-06-10T09:41:36;24.01;67.81
72114;SHT31;59989;46.220;19.888;2023-06-10T09:44:41;24.12;67.27
72114;SHT31;59989;46.220;19.888;2023-06-10T09:47:54;24.25;68.26
72114;SHT31;59989;46.220;19.888;2023-06-10T09:50:58;24.63;67.74
72114;SHT31;59989;46.220;19.888;2023-06-10T09:54:02;24.83;64.60
72114;SHT31;59989;46.220;19.888;2023-06-10T09:57:08;25.59;62.20
72114;SHT31;59989;46.220;19.888;2023-06-10T10:00:14;26.95;61.05
72114;SHT31;59989;46.220;19.888;2023-06-10T10:03:23;27.71;58.00
72114;SHT31;59989;46.220;19.888;2023-06-10T10:06:26;28.71;53.80
72114;SHT31;59989;46.220;19.888;2023-06-10T10:09:29;27.54;56.09
72114;SHT31;59989;46.220;19.888;2023-06-10T10:12:33;26.84;61.08
72114;SHT31;59989;46.220;19.888;2023-06-10T10:15:36;26.81;58.35
72114;SHT31;59989;46.220;19.888;2023-06-10T10:18:57;26.54;59.37
72114;SHT31;59989;46.220;19.888;2023-06-10T10:22:04;26.26;61.16
72114;SHT31;59989;46.220;19.888;2023-06-10T10:25:11;26.36;61.78
72114;SHT31;59989;46.220;19.888;2023-06-10T10:28:19;25.45;63.44
72114;SHT31;59989;46.220;19.888;2023-06-10T10:31:22;25.48;64.78
72114;SHT31;59989;46.220;19.888;2023-06-10T10:34:35;24.80;68.81
72114;SHT31;59989;46.220;19.888;2023-06-10T10:37:39;24.64;72.19
72114;SHT31;59989;46.220;19.888;2023-06-10T10:40:44;24.87;72.22
72114;SHT31;59989;46.220;19.888;2023-06-10T10:43:47;24.66;71.82
72114;SHT31;59989;46.220;19.888;2023-06-10T10:46:51;24.30;72.60
72114;SHT31;59989;46.220;19.888;2023-06-10T10:49:54;24.70;72.19
72114;SHT31;59989;46.220;19.888;2023-06-10T10:53:04;26.23;67.97
72114;SHT31;59989;46.220;19.888;2023-06-10T10:56:12;26.69;64.08
72114;SHT31;59989;46.220;19.888;2023-06-10T10:59:16;27.29;64.85
72114;SHT31;59989;46.220;19.888;2023-06-10T11:05:43;28.11;60.13
72114;SHT31;59989;46.220;19.888;2023-06-10T11:08:47;27.98;60.24
72114;SHT31;59989;46.220;19.888;2023-06-10T11:11:51;27.94;60.46
72114;SHT31;59989;46.220;19.888;2023-06-10T11:14:54;27.34;61.13
72114;SHT31;59989;46.220;19.888;2023-06-10T11:21:16;25.12;66.68
72114;SHT31;59989;46.220;19.888;2023-06-10T11:24:19;24.42;69.76
72114;SHT31;59989;46.220;19.888;2023-06-10T11:27:23;23.51;74.44
72114;SHT31;59989;46.220;19.888;2023-06-10T11:30:34;21.72;79.48
72114;SHT31;59989;46.220;19.888;2023-06-10T11:33:38;21.45;81.85
72114;SHT31;59989;46.220;19.888;2023-06-10T11:36:42;20.59;84.43
72114;SHT31;59989;46.220;19.888;2023-06-10T11:39:51;20.73;84.51
72114;SHT31;59989;46.220;19.888;2023-06-10T11:42:53;20.22;84.53
72114;SHT31;59989;46.220;19.888;2023-06-10T11:45:56;20.09;85.58
72114;SHT31;59989;46.220;19.888;2023-06-10T11:48:59;20.04;84.84
72114;SHT31;59989;46.220;19.888;2023-06-10T11:52:04;20.02;83.97
72114;SHT31;59989;46.220;19.888;2023-06-10T11:55:07;20.08;84.00
72114;SHT31;59989;46.220;19.888;2023-06-10T11:58:16;20.00;86.04
72114;SHT31;59989;46.220;19.888;2023-06-10T12:01:20;19.81;85.87
72114;SHT31;59989;46.220;19.888;2023-06-10T12:04:31;19.87;86.53
72114;SHT31;59989;46.220;19.888;2023-06-10T12:07:33;20.14;86.06
72114;SHT31;59989;46.220;19.888;2023-06-10T12:10:42;19.95;85.35
72114;SHT31;59989;46.220;19.888;2023-06-10T12:13:49;20.19;86.66
72114;SHT31;59989;46.220;19.888;2023-06-10T12:16:52;19.95;85.65
72114;SHT31;59989;46.220;19.888;2023-06-10T12:19:55;20.05;85.22
72114;SHT31;59989;46.220;19.888;2023-06-10T12:23:01;20.26;84.89
72114;SHT31;59989;46.220;19.888;2023-06-10T12:26:10;20.11;84.76
72114;SHT31;59989;46.220;19.888;2023-06-10T12:29:16;20.33;85.22
72114;SHT31;59989;46.220;19.888;2023-06-10T12:32:20;20.75;85.33
72114;SHT31;59989;46.220;19.888;2023-06-10T12:35:26;20.90;83.52
72114;SHT31;59989;46.220;19.888;2023-06-10T12:38:30;20.96;85.21
72114;SHT31;59989;46.220;19.888;2023-06-10T12:41:36;21.04;84.59
72114;SHT31;59989;46.220;19.888;2023-06-10T12:44:40;21.00;85.39
72114;SHT31;59989;46.220;19.888;2023-06-10T12:47:43;21.14;85.43
72114;SHT31;59989;46.220;19.888;2023-06-10T12:50:54;21.37;85.49
72114;SHT31;59989;46.220;19.888;2023-06-10T12:53:57;21.07;85.73
72114;SHT31;59989;46.220;19.888;2023-06-10T12:57:00;21.20;87.64
72114;SHT31;59989;46.220;19.888;2023-06-10T13:00:03;21.32;86.01
72114;SHT31;59989;46.220;19.888;2023-06-10T13:03:08;21.51;86.98
72114;SHT31;59989;46.220;19.888;2023-06-10T13:06:10;21.83;85.33
72114;SHT31;59989;46.220;19.888;2023-06-10T13:09:14;22.03;85.62
72114;SHT31;59989;46.220;19.888;2023-06-10T13:12:17;22.50;83.92
72114;SHT31;59989;46.220;19.888;2023-06-10T13:15:32;22.85;82.01
72114;SHT31;59989;46.220;19.888;2023-06-10T13:18:44;23.23;79.47
72114;SHT31;59989;46.220;19.888;2023-06-10T13:21:46;24.57;78.67
72114;SHT31;59989;46.220;19.888;2023-06-10T13:24:49;25.00;70.27
72114;SHT31;59989;46.220;19.888;2023-06-10T13:27:51;24.15;74.27
72114;SHT31;59989;46.220;19.888;2023-06-10T13:30:54;24.29;68.70
72114;SHT31;59989;46.220;19.888;2023-06-10T13:33:56;24.86;68.25
72114;SHT31;59989;46.220;19.888;2023-06-10T13:36:59;25.83;67.58
72114;SHT31;59989;46.220;19.888;2023-06-10T13:40:02;25.14;68.34
72114;SHT31;59989;46.220;19.888;2023-06-10T13:43:06;24.36;69.83
72114;SHT31;59989;46.220;19.888;2023-06-10T13:46:08;24.64;70.79
72114;SHT31;59989;46.220;19.888;2023-06-10T13:49:11;25.14;68.33
72114;SHT31;59989;46.220;19.888;2023-06-10T13:52:14;26.04;67.09
72114;SHT31;59989;46.220;19.888;2023-06-10T13:55:16;27.00;62.68
72114;SHT31;59989;46.220;19.888;2023-06-10T13:58:20;28.87;56.96
72114;SHT31;59989;46.220;19.888;2023-06-10T14:01:23;30.40;54.76
72114;SHT31;59989;46.220;19.888;2023-06-10T14:04:26;29.72;56.48
72114;SHT31;59989;46.220;19.888;2023-06-10T14:07:29;30.16;52.18
72114;SHT31;59989;46.220;19.888;2023-06-10T14:10:31;29.38;53.45
72114;SHT31;59989;46.220;19.888;2023-06-10T14:13:34;29.86;54.55
72114;SHT31;59989;46.220;19.888;2023-06-10T14:16:36;31.95;47.94
72114;SHT31;59989;46.220;19.888;2023-06-10T14:19:42;32.02;50.06
72114;SHT31;59989;46.220;19.888;2023-06-10T14:22:44;31.48;50.39
72114;SHT31;59989;46.220;19.888;2023-06-10T14:25:47;32.80;48.61
72114;SHT31;59989;46.220;19.888;2023-06-10T14:28:51;33.34;47.48
72114;SHT31;59989;46.220;19.888;2023-06-10T14:31:53;34.41;45.64
72114;SHT31;59989;46.220;19.888;2023-06-10T14:34:56;34.70;45.01
72114;SHT31;59989;46.220;19.888;2023-06-10T14:37:58;32.32;47.75
72114;SHT31;59989;46.220;19.888;2023-06-10T14:41:01;33.95;46.22
72114;SHT31;59989;46.220;19.888;2023-06-10T14:44:04;35.36;43.19
72114;SHT31;59989;46.220;19.888;2023-06-10T14:47:07;34.87;44.30
72114;SHT31;59989;46.220;19.888;2023-06-10T14:50:10;36.11;40.91
72114;SHT31;59989;46.220;19.888;2023-06-10T14:53:12;36.49;39.95
72114;SHT31;59989;46.220;19.888;2023-06-10T14:56:15;32.49;47.79
72114;SHT31;59989;46.220;19.888;2023-06-10T14:59:17;30.44;50.25
72114;SHT31;59989;46.220;19.888;2023-06-10T15:02:20;28.09;56.17
72114;SHT31;59989;46.220;19.888;2023-06-10T15:05:22;28.35;55.55
72114;SHT31;59989;46.220;19.888;2023-06-10T15:08:25;28.59;55.22
72114;SHT31;59989;46.220;19.888;2023-06-10T15:11:27;27.98;58.15
72114;SHT31;59989;46.220;19.888;2023-06-10T15:14:30;26.57;61.60
72114;SHT31;59989;46.220;19.888;2023-06-10T15:17:33;26.26;63.31
72114;SHT31;59989;46.220;19.888;2023-06-10T15:20:35;25.53;63.42
72114;SHT31;59989;46.220;19.888;2023-06-10T15:23:38;25.69;64.43
72114;SHT31;59989;46.220;19.888;2023-06-10T15:26:40;25.32;64.33
72114;SHT31;59989;46.220;19.888;2023-06-10T15:29:43;25.59;64.10
72114;SHT31;59989;46.220;19.888;2023-06-10T15:32:45;26.36;63.16
72114;SHT31;59989;46.220;19.888;2023-06-10T15:35:48;26.38;63.60
72114;SHT31;59989;46.220;19.888;2023-06-10T15:38:50;26.37;60.69
72114;SHT31;59989;46.220;19.888;2023-06-10T15:41:58;26.67;59.80
72114;SHT31;59989;46.220;19.888;2023-06-10T15:45:00;27.32;58.15
72114;SHT31;59989;46.220;19.888;2023-06-10T15:48:03;27.74;57.50
72114;SHT31;59989;46.220;19.888;2023-06-10T15:51:06;26.84;59.67
72114;SHT31;59989;46.220;19.888;2023-06-10T15:54:09;26.99;60.61
72114;SHT31;59989;46.220;19.888;2023-06-10T15:57:12;27.51;60.35
72114;SHT31;59989;46.220;19.888;2023-06-10T16:00:15;28.08;58.93
72114;SHT31;59989;46.220;19.888;2023-06-10T16:03:18;27.88;58.67
72114;SHT31;59989;46.220;19.888;2023-06-10T16:06:21;26.81;61.11
72114;SHT31;59989;46.220;19.888;2023-06-10T16:09:23;26.00;64.49
72114;SHT31;59989;46.220;19.888;2023-06-10T16:12:26;25.85;65.02
72114;SHT31;59989;46.220;19.888;2023-06-10T16:15:29;25.72;64.92
72114;SHT31;59989;46.220;19.888;2023-06-10T16:18:31;25.58;66.53
72114;SHT31;59989;46.220;19.888;2023-06-10T16:21:34;25.73;65.34
72114;SHT31;59989;46.220;19.888;2023-06-10T16:24:39;27.63;60.32
72114;SHT31;59989;46.220;19.888;2023-06-10T16:27:42;27.03;61.12
72114;SHT31;59989;46.220;19.888;2023-06-10T16:30:45;26.07;64.51
72114;SHT31;59989;46.220;19.888;2023-06-10T16:33:48;26.41;63.66
72114;SHT31;59989;46.220;19.888;2023-06-10T16:36:51;25.80;63.99
72114;SHT31;59989;46.220;19.888;2023-06-10T16:39:53;25.17;66.28
72114;SHT31;59989;46.220;19.888;2023-06-10T16:42:56;24.60;67.78
72114;SHT31;59989;46.220;19.888;2023-06-10T16:45:58;24.21;68.88
72114;SHT31;59989;46.220;19.888;2023-06-10T16:49:01;23.98;70.84
72114;SHT31;59989;46.220;19.888;2023-06-10T16:52:05;23.97;72.04
72114;SHT31;59989;46.220;19.888;2023-06-10T16:55:08;23.73;71.78
72114;SHT31;59989;46.220;19.888;2023-06-10T16:58:11;23.54;72.71
72114;SHT31;59989;46.220;19.888;2023-06-10T17:01:13;23.31;73.69
72114;SHT31;59989;46.220;19.888;2023-06-10T17:04:16;23.23;72.07
72114;SHT31;59989;46.220;19.888;2023-06-10T17:07:18;23.16;72.82
72114;SHT31;59989;46.220;19.888;2023-06-10T17:10:22;23.20;72.99
72114;SHT31;59989;46.220;19.888;2023-06-10T17:13:25;23.10;73.44
72114;SHT31;59989;46.220;19.888;2023-06-10T17:16:27;23.02;74.36
72114;SHT31;59989;46.220;19.888;2023-06-10T17:19:30;22.88;74.64
72114;SHT31;59989;46.220;19.888;2023-06-10T17:22:33;22.79;75.55
72114;SHT31;59989;46.220;19.888;2023-06-10T17:25:36;22.72;76.12
72114;SHT31;59989;46.220;19.888;2023-06-10T17:28:39;22.67;76.64
72114;SHT31;59989;46.220;19.888;2023-06-10T17:31:42;22.58;76.76
72114;SHT31;59989;46.220;19.888;2023-06-10T17:34:44;22.51;77.31
72114;SHT31;59989;46.220;19.888;2023-06-10T17:37:47;22.43;76.45
72114;SHT31;59989;46.220;19.888;2023-06-10T17:40:49;22.44;77.39
72114;SHT31;59989;46.220;19.888;2023-06-10T17:43:52;22.41;78.19
72114;SHT31;59989;46.220;19.888;2023-06-10T17:46:54;22.31;78.51
72114;SHT31;59989;46.220;19.888;2023-06-10T17:49:57;22.25;78.09
72114;SHT31;59989;46.220;19.888;2023-06-10T17:53:00;22.17;78.73
72114;SHT31;59989;46.220;19.888;2023-06-10T17:56:02;22.14;78.69
72114;SHT31;59989;46.220;19.888;2023-06-10T17:59:05;22.10;79.38
72114;SHT31;59989;46.220;19.888;2023-06-10T18:02:08;22.02;80.43
72114;SHT31;59989;46.220;19.888;2023-06-10T18:05:11;22.00;81.47
72114;SHT31;59989;46.220;19.888;2023-06-10T18:08:14;21.89;81.89
72114;SHT31;59989;46.220;19.888;2023-06-10T18:11:16;21.82;82.73
72114;SHT31;59989;46.220;19.888;2023-06-10T18:14:19;21.76;83.19
72114;SHT31;59989;46.220;19.888;2023-06-10T18:17:21;21.67;83.25
72114;SHT31;59989;46.220;19.888;2023-06-10T18:20:24;21.65;83.75
72114;SHT31;59989;46.220;19.888;2023-06-10T18:23:27;21.59;83.88
72114;SHT31;59989;46.220;19.888;2023-06-10T18:26:30;21.55;84.68
72114;SHT31;59989;46.220;19.888;2023-06-10T18:29:32;21.49;84.26
72114;SHT31;59989;46.220;19.888;2023-06-10T18:32:35;21.44;82.97
72114;SHT31;59989;46.220;19.888;2023-06-10T18:35:37;21.41;83.14
72114;SHT31;59989;46.220;19.888;2023-06-10T18:38:40;21.38;83.21
72114;SHT31;59989;46.220;19.888;2023-06-10T18:41:43;21.34;83.55
72114;SHT31;59989;46.220;19.888;2023-06-10T18:44:46;21.30;84.11
72114;SHT31;59989;46.220;19.888;2023-06-10T18:47:49;21.21;84.86
72114;SHT31;59989;46.220;19.888;2023-06-10T18:50:57;21.17;85.24
72114;SHT31;59989;46.220;19.888;2023-06-10T18:54:00;21.10;85.24
72114;SHT31;59989;46.220;19.888;2023-06-10T18:57:04;21.08;85.81
72114;SHT31;59989;46.220;19.888;2023-06-10T19:00:08;20.98;86.26
72114;SHT31;59989;46.220;19.888;2023-06-10T19:03:11;20.97;86.24
72114;SHT31;59989;46.220;19.888;2023-06-10T19:06:14;20.91;86.94
72114;SHT31;59989;46.220;19.888;2023-06-10T19:09:17;20.83;86.77